createdAt,value
2019-05-12T00:00:42.496Z,11.68
2019-05-12T00:03:11.595Z,11.66
2019-05-12T00:05:40.652Z,11.63
2019-05-12T00:08:09.679Z,11.60
2019-05-12T00:10:38.944Z,11.57
2019-05-12T00:13:08.630Z,11.55
2019-05-12T00:15:38.560Z,11.52
2019-05-12T00:18:09.075Z,11.52
2019-05-12T00:20:38.757Z,11.53
2019-05-12T00:23:23.077Z,11.52
2019-05-12T00:25:58.723Z,11.52
2019-05-12T00:28:28.512Z,11.50
2019-05-12T00:30:58.157Z,11.46
2019-05-12T00:33:28.255Z,11.42
2019-05-12T00:35:58.720Z,11.39
2019-05-12T00:38:27.958Z,11.35
2019-05-12T00:40:58.374Z,11.33
2019-05-12T00:43:28.165Z,11.32
2019-05-12T00:45:58.707Z,11.26
2019-05-12T00:48:28.401Z,11.23
2019-05-12T00:50:58.407Z,11.22
2019-05-12T00:53:39.004Z,11.20
2019-05-12T00:55:58.569Z,11.21
2019-05-12T00:58:27.942Z,11.24
2019-05-12T01:00:59.624Z,11.27
2019-05-12T01:03:28.140Z,11.32
2019-05-12T01:05:57.743Z,11.35
2019-05-12T01:08:28.047Z,11.38
2019-05-12T01:10:58.329Z,11.41
2019-05-12T01:13:28.096Z,11.40
2019-05-12T01:15:58.706Z,11.38
2019-05-12T01:18:28.193Z,11.40
2019-05-12T01:20:58.354Z,11.37
2019-05-12T01:23:28.242Z,11.35
2019-05-12T01:25:58.581Z,11.31
2019-05-12T01:28:28.053Z,11.29
2019-05-12T01:30:58.844Z,11.25
2019-05-12T01:33:28.215Z,11.25
2019-05-12T01:35:58.629Z,11.23
2019-05-12T01:38:28.786Z,11.25
2019-05-12T01:40:58.490Z,11.25
2019-05-12T01:43:27.939Z,11.27
2019-05-12T01:45:58.870Z,11.32
2019-05-12T01:48:28.756Z,11.34
2019-05-12T01:50:58.355Z,11.38
2019-05-12T01:53:28.702Z,11.44
2019-05-12T01:55:58.547Z,11.48
2019-05-12T01:58:27.958Z,11.50
2019-05-12T02:00:58.853Z,11.53
2019-05-12T02:03:28.451Z,11.54
2019-05-12T02:05:59.020Z,11.56
2019-05-12T02:08:38.403Z,11.60
2019-05-12T02:11:25.267Z,11.65
2019-05-12T02:13:54.360Z,11.67
2019-05-12T02:16:23.424Z,11.60
2019-05-12T02:18:52.561Z,11.60
2019-05-12T02:21:21.587Z,11.58
2019-05-12T02:23:50.698Z,11.56
2019-05-12T02:26:19.740Z,11.53
2019-05-12T02:28:48.807Z,11.49
2019-05-12T02:31:20.779Z,11.46
2019-05-12T02:33:48.634Z,11.39
2019-05-12T02:36:17.662Z,11.37
2019-05-12T02:38:46.789Z,11.34
2019-05-12T02:41:15.879Z,11.33
2019-05-12T02:43:45.851Z,11.33
2019-05-12T02:46:15.804Z,11.33
2019-05-12T02:48:45.225Z,11.33
2019-05-12T02:51:15.572Z,11.32
2019-05-12T02:53:47.088Z,11.29
2019-05-12T02:56:15.706Z,11.27
2019-05-12T02:58:45.354Z,11.22
2019-05-12T03:01:15.296Z,11.16
2019-05-12T03:03:44.464Z,11.17
2019-05-12T03:06:15.192Z,11.19
2019-05-12T03:08:44.954Z,11.18
2019-05-12T03:11:14.905Z,11.16
2019-05-12T03:13:44.899Z,11.14
2019-05-12T03:16:15.153Z,11.10
2019-05-12T03:18:45.105Z,11.05
2019-05-12T03:21:15.397Z,11.00
2019-05-12T03:23:44.977Z,10.93
2019-05-12T03:26:15.314Z,10.89
2019-05-12T03:28:44.837Z,10.84
2019-05-12T03:31:22.238Z,10.80
2019-05-12T03:33:51.987Z,10.78
2019-05-12T03:36:17.830Z,10.77
2019-05-12T03:38:46.369Z,10.75
2019-05-12T03:41:15.399Z,10.75
2019-05-12T03:43:44.986Z,10.76
2019-05-12T03:46:15.215Z,10.75
2019-05-12T03:48:45.531Z,10.74
2019-05-12T03:51:15.601Z,10.72
2019-05-12T03:53:45.595Z,10.69
2019-05-12T03:56:15.367Z,10.68
2019-05-12T03:58:45.405Z,10.67
2019-05-12T04:01:15.265Z,10.66
2019-05-12T04:03:45.287Z,10.69
2019-05-12T04:06:15.586Z,10.71
2019-05-12T04:08:45.769Z,10.74
2019-05-12T04:11:15.017Z,10.76
2019-05-12T04:13:45.126Z,10.78
2019-05-12T04:16:16.333Z,10.79
2019-05-12T04:18:45.329Z,10.80
2019-05-12T04:21:15.526Z,10.86
2019-05-12T04:23:45.079Z,10.92
2019-05-12T04:26:16.915Z,11.00
2019-05-12T04:28:45.745Z,11.09
2019-05-12T04:31:15.602Z,11.20
2019-05-12T04:33:45.296Z,11.26
2019-05-12T04:36:15.176Z,11.33
2019-05-12T04:38:45.162Z,11.39
2019-05-12T04:41:19.800Z,11.44
2019-05-12T04:43:47.637Z,11.51
2019-05-12T04:46:16.714Z,11.62
2019-05-12T04:48:45.860Z,11.71
2019-05-12T04:51:15.536Z,11.77
2019-05-12T04:53:45.147Z,11.85
2019-05-12T04:56:19.111Z,11.96
2019-05-12T04:58:45.307Z,12.05
2019-05-12T05:01:15.510Z,12.17
2019-05-12T05:03:44.841Z,12.22
2019-05-12T05:06:14.827Z,12.27
2019-05-12T05:08:44.472Z,12.32
2019-05-12T05:11:14.721Z,12.38
2019-05-12T05:13:44.532Z,12.43
2019-05-12T05:16:14.381Z,12.48
2019-05-12T05:18:44.148Z,12.46
2019-05-12T05:21:13.970Z,12.51
2019-05-12T05:23:44.315Z,12.59
2019-05-12T05:26:22.203Z,12.67
2019-05-12T05:28:44.325Z,12.73
2019-05-12T05:31:14.067Z,12.81
2019-05-12T05:33:43.587Z,12.94
2019-05-12T05:36:15.110Z,13.08
2019-05-12T05:38:43.796Z,13.22
2019-05-12T05:41:13.450Z,13.33
2019-05-12T05:43:43.788Z,13.01
2019-05-12T05:46:13.799Z,13.54
2019-05-12T05:48:43.944Z,13.66
2019-05-12T05:51:13.762Z,13.80
2019-05-12T05:53:44.179Z,13.91
2019-05-12T05:56:14.395Z,14.01
2019-05-12T05:58:50.158Z,14.11
2019-05-12T06:01:15.079Z,14.18
2019-05-12T06:03:44.334Z,14.25
2019-05-12T06:06:15.401Z,14.31
2019-05-12T06:08:57.734Z,14.36
2019-05-12T06:11:28.569Z,14.39
2019-05-12T06:14:03.159Z,14.53
2019-05-12T06:16:28.639Z,14.71
2019-05-12T06:18:57.748Z,14.83
2019-05-12T06:21:29.036Z,15.01
2019-05-12T06:23:57.668Z,15.13
2019-05-12T06:26:31.479Z,15.21
2019-05-12T06:28:57.834Z,15.32
2019-05-12T06:31:29.828Z,15.68
2019-05-12T06:33:57.869Z,16.14
2019-05-12T06:36:27.460Z,16.49
2019-05-12T06:38:56.571Z,16.82
2019-05-12T06:41:25.965Z,17.28
2019-05-12T06:43:55.206Z,17.59
2019-05-12T06:46:25.967Z,17.87
2019-05-12T06:48:55.095Z,18.48
2019-05-12T06:51:25.898Z,18.91
2019-05-12T06:53:55.113Z,19.16
2019-05-12T06:56:24.222Z,19.42
2019-05-12T06:58:53.568Z,19.63
2019-05-12T07:01:24.182Z,19.87
2019-05-12T07:03:53.522Z,20.35
2019-05-12T07:06:24.731Z,20.46
2019-05-12T07:11:24.253Z,20.04
2019-05-12T07:14:02.149Z,19.76
2019-05-12T07:16:29.992Z,20.02
2019-05-12T07:18:55.389Z,20.76
2019-05-12T07:21:27.161Z,21.60
2019-05-12T07:23:55.403Z,22.39
2019-05-12T07:26:24.552Z,22.84
2019-05-12T07:28:54.179Z,23.01
2019-05-12T07:31:23.413Z,23.22
2019-05-12T07:33:54.248Z,22.94
2019-05-12T07:36:24.292Z,22.44
2019-05-12T07:38:55.883Z,22.02
2019-05-12T07:41:25.414Z,21.50
2019-05-12T07:43:56.742Z,20.85
2019-05-12T07:46:27.908Z,20.37
2019-05-12T07:48:56.312Z,19.82
2019-05-12T07:51:30.247Z,19.49
2019-05-12T07:53:58.954Z,19.08
2019-05-12T07:56:32.558Z,19.04
2019-05-12T07:58:58.108Z,19.02
2019-05-12T08:01:27.168Z,19.15
2019-05-12T08:04:01.283Z,19.14
2019-05-12T08:06:27.151Z,19.85
2019-05-12T08:08:59.035Z,20.98
2019-05-12T08:11:36.650Z,22.11
2019-05-12T08:14:00.655Z,23.00
2019-05-12T08:16:36.224Z,23.78
2019-05-12T08:19:03.972Z,23.76
2019-05-12T08:21:34.815Z,23.45
2019-05-12T08:24:03.870Z,23.14
2019-05-12T08:26:33.542Z,22.81
2019-05-12T08:29:04.239Z,22.44
2019-05-12T08:31:40.156Z,22.14
2019-05-12T08:34:04.486Z,21.84
2019-05-12T08:36:33.649Z,21.60
2019-05-12T08:39:05.880Z,21.35
2019-05-12T08:41:34.187Z,21.19
2019-05-12T08:44:04.628Z,21.16
2019-05-12T08:46:34.358Z,21.00
2019-05-12T08:49:05.332Z,20.88
2019-05-12T08:51:34.616Z,20.79
2019-05-12T08:54:07.822Z,20.89
2019-05-12T08:56:34.881Z,21.39
2019-05-12T08:59:04.430Z,22.41
2019-05-12T09:01:34.411Z,23.15
2019-05-12T09:04:06.489Z,23.91
2019-05-12T09:06:35.224Z,24.78
2019-05-12T09:09:07.453Z,25.21
2019-05-12T09:11:36.532Z,25.10
2019-05-12T09:14:06.010Z,24.82
2019-05-12T09:16:35.338Z,24.76
2019-05-12T09:19:04.991Z,25.51
2019-05-12T09:21:37.003Z,26.87
2019-05-12T09:24:05.468Z,28.24
2019-05-12T09:26:37.429Z,29.28
2019-05-12T09:29:13.900Z,30.07
2019-05-12T09:31:44.036Z,30.06
2019-05-12T09:34:20.848Z,29.86
2019-05-12T09:36:51.971Z,29.18
2019-05-12T09:39:23.352Z,28.39
2019-05-12T09:41:54.799Z,27.71
2019-05-12T09:44:36.871Z,27.10
2019-05-12T09:47:12.939Z,26.66
2019-05-12T09:49:39.562Z,26.66
2019-05-12T09:52:35.637Z,28.11
2019-05-12T09:55:04.975Z,29.00
2019-05-12T09:57:40.767Z,30.63
2019-05-12T10:00:05.469Z,30.83
2019-05-12T10:02:34.659Z,31.08
2019-05-12T10:05:04.093Z,31.95
2019-05-12T10:07:33.938Z,32.58
2019-05-12T10:10:03.803Z,32.77
2019-05-12T10:12:38.663Z,33.66
2019-05-12T10:15:04.388Z,34.95
2019-05-12T10:17:34.111Z,36.12
2019-05-12T10:20:03.326Z,37.02
2019-05-12T10:22:40.031Z,37.68
2019-05-12T10:25:08.604Z,38.00
2019-05-12T10:27:37.812Z,37.47
2019-05-12T10:30:12.106Z,36.64
2019-05-12T10:32:38.944Z,37.18
2019-05-12T10:35:12.642Z,36.71
2019-05-12T10:37:39.182Z,35.51
2019-05-12T10:40:08.430Z,35.74
2019-05-12T10:42:39.778Z,36.52
2019-05-12T10:45:10.771Z,35.81
2019-05-12T10:47:39.775Z,35.66
2019-05-12T10:50:08.938Z,34.43
2019-05-12T10:52:39.083Z,33.18
2019-05-12T10:55:08.350Z,31.87
2019-05-12T10:57:43.944Z,32.25
2019-05-12T11:00:19.756Z,34.13
2019-05-12T11:02:45.815Z,36.06
2019-05-12T11:05:21.103Z,37.30
2019-05-12T11:07:45.852Z,38.24
2019-05-12T11:10:19.603Z,38.72
2019-05-12T11:12:45.929Z,37.81
2019-05-12T11:15:15.097Z,35.82
2019-05-12T11:18:01.763Z,34.81
2019-05-12T11:20:34.392Z,35.27
2019-05-12T11:23:03.726Z,35.90
2019-05-12T11:25:34.187Z,35.95
2019-05-12T11:28:03.932Z,34.75
2019-05-12T11:30:34.508Z,33.40
2019-05-12T11:33:04.577Z,32.01
2019-05-12T11:35:34.366Z,31.13
2019-05-12T11:38:04.586Z,30.80
2019-05-12T11:40:34.625Z,30.39
2019-05-12T11:43:04.672Z,29.69
2019-05-12T11:45:35.004Z,29.08
2019-05-12T11:48:09.957Z,28.53
2019-05-12T11:50:34.984Z,28.13
2019-05-12T11:53:04.434Z,27.83
2019-05-12T11:55:34.961Z,27.57
2019-05-12T11:58:09.209Z,27.29
2019-05-12T12:00:37.214Z,27.01
2019-05-12T12:03:12.681Z,26.99
2019-05-12T12:05:38.324Z,26.99
2019-05-12T12:08:07.765Z,26.84
2019-05-12T12:10:39.669Z,26.52
2019-05-12T12:13:08.168Z,26.06
2019-05-12T12:15:37.814Z,25.67
2019-05-12T12:18:13.005Z,25.51
2019-05-12T12:20:37.943Z,25.38
2019-05-12T12:23:10.995Z,25.24
2019-05-12T12:25:38.244Z,25.10
2019-05-12T12:28:07.494Z,24.81
2019-05-12T12:30:36.667Z,24.72
2019-05-12T12:33:06.110Z,24.70
2019-05-12T12:35:35.846Z,24.66
2019-05-12T12:38:05.128Z,24.60
2019-05-12T12:40:34.323Z,24.42
2019-05-12T12:43:04.042Z,24.26
2019-05-12T12:45:40.461Z,24.11
2019-05-12T12:48:10.201Z,24.02
2019-05-12T12:50:39.285Z,23.97
2019-05-12T12:53:09.156Z,24.07
2019-05-12T12:55:43.400Z,23.92
2019-05-12T12:58:09.111Z,23.83
2019-05-12T13:00:47.222Z,23.82
2019-05-12T13:03:09.413Z,23.86
2019-05-12T13:05:38.488Z,23.79
2019-05-12T13:08:07.605Z,23.42
2019-05-12T13:10:40.496Z,23.11
2019-05-12T13:13:07.532Z,22.89
2019-05-12T13:15:36.554Z,23.00
2019-05-12T13:18:08.782Z,23.15
2019-05-12T13:20:36.484Z,23.27
2019-05-12T13:23:05.598Z,23.47
2019-05-12T13:25:38.886Z,23.68
2019-05-12T13:28:10.165Z,23.82
2019-05-12T13:30:46.053Z,23.79
2019-05-12T13:33:13.394Z,23.72
2019-05-12T13:35:40.887Z,23.61
2019-05-12T13:38:10.011Z,23.39
2019-05-12T13:40:39.550Z,23.32
2019-05-12T13:43:15.715Z,23.32
2019-05-12T13:45:39.606Z,23.29
2019-05-12T13:48:09.467Z,23.27
2019-05-12T13:50:40.347Z,23.34
2019-05-12T13:53:10.335Z,23.40
2019-05-12T13:55:45.518Z,23.52
2019-05-12T13:58:10.430Z,23.49
2019-05-12T14:00:50.923Z,23.43
2019-05-12T14:03:14.029Z,23.33
2019-05-12T14:05:50.494Z,23.25
2019-05-12T14:08:16.930Z,23.26
2019-05-12T14:10:53.782Z,23.22
2019-05-12T14:13:17.547Z,23.25
2019-05-12T14:15:50.483Z,23.27
2019-05-12T14:18:20.821Z,23.26
2019-05-12T14:20:50.965Z,23.25
2019-05-12T14:23:20.856Z,23.24
2019-05-12T14:25:49.998Z,23.17
2019-05-12T14:28:19.203Z,23.11
2019-05-12T14:30:51.613Z,23.10
2019-05-12T14:33:19.275Z,23.13
2019-05-12T14:35:49.315Z,23.15
2019-05-12T14:38:19.428Z,23.19
2019-05-12T14:40:49.209Z,23.15
2019-05-12T14:43:21.282Z,23.20
2019-05-12T14:45:49.361Z,23.26
2019-05-12T14:48:18.406Z,23.34
2019-05-12T14:50:47.520Z,23.39
2019-05-12T14:53:16.592Z,23.43
2019-05-12T14:55:45.814Z,23.48
2019-05-12T14:58:20.605Z,23.43
2019-05-12T15:00:50.991Z,23.40
2019-05-12T15:03:17.709Z,23.32
2019-05-12T15:05:48.689Z,23.07
2019-05-12T15:08:21.134Z,22.92
2019-05-12T15:10:48.754Z,22.67
2019-05-12T15:13:17.885Z,22.49
2019-05-12T15:15:50.038Z,22.35
2019-05-12T15:18:17.949Z,22.17
2019-05-12T15:20:49.736Z,22.02
2019-05-12T15:23:18.139Z,21.92
2019-05-12T15:25:47.224Z,21.86
2019-05-12T15:28:16.454Z,21.89
2019-05-12T15:30:45.546Z,21.93
2019-05-12T15:33:14.781Z,21.94
2019-05-12T15:35:44.131Z,21.94
2019-05-12T15:38:14.729Z,21.92
2019-05-12T15:40:44.216Z,21.85
2019-05-12T15:43:13.851Z,21.71
2019-05-12T15:45:43.775Z,21.67
2019-05-12T15:48:14.562Z,21.55
2019-05-12T15:50:45.793Z,21.46
2019-05-12T15:53:22.097Z,21.28
2019-05-12T15:55:49.774Z,21.21
2019-05-12T15:58:16.257Z,21.18
2019-05-12T16:00:45.334Z,21.14
2019-05-12T16:03:14.473Z,21.19
2019-05-12T16:05:44.457Z,21.26
2019-05-12T16:08:15.161Z,21.32
2019-05-12T16:10:44.557Z,21.41
2019-05-12T16:13:15.754Z,21.55
2019-05-12T16:15:49.349Z,21.58
2019-05-12T16:18:23.486Z,21.67
2019-05-12T16:20:53.568Z,21.62
2019-05-12T16:23:29.631Z,21.55
2019-05-12T16:26:01.375Z,21.46
2019-05-12T16:28:27.756Z,21.30
2019-05-12T16:31:07.091Z,21.16
2019-05-12T16:33:33.295Z,21.03
2019-05-12T16:36:09.433Z,20.85
2019-05-12T16:38:32.518Z,20.68
2019-05-12T16:41:03.777Z,20.59
2019-05-12T16:43:35.085Z,20.48
2019-05-12T16:46:04.351Z,20.34
2019-05-12T16:48:36.188Z,20.15
2019-05-12T16:51:04.871Z,20.00
2019-05-12T16:53:34.182Z,19.85
2019-05-12T16:56:04.149Z,19.80
2019-05-12T16:58:35.453Z,19.60
2019-05-12T17:01:04.697Z,19.49
2019-05-12T17:03:36.113Z,19.32
2019-05-12T17:06:05.307Z,19.20
2019-05-12T17:08:34.566Z,19.09
2019-05-12T17:11:23.278Z,19.04
2019-05-12T17:13:36.733Z,19.02
2019-05-12T17:16:05.956Z,19.00
2019-05-12T17:18:37.911Z,19.02
2019-05-12T17:21:07.159Z,19.06
2019-05-12T17:23:36.683Z,19.05
2019-05-12T17:26:06.045Z,19.09
2019-05-12T17:28:38.120Z,19.08
2019-05-12T17:31:07.405Z,19.07
2019-05-12T17:33:39.062Z,19.09
2019-05-12T17:36:14.413Z,19.12
2019-05-12T17:38:39.061Z,19.11
2019-05-12T17:41:08.713Z,19.11
2019-05-12T17:43:45.036Z,19.08
2019-05-12T17:46:12.401Z,19.06
2019-05-12T17:48:42.745Z,19.00
2019-05-12T17:51:10.778Z,18.92
2019-05-12T17:53:39.976Z,18.80
2019-05-12T17:56:09.467Z,18.70
2019-05-12T17:58:44.525Z,18.62
2019-05-12T18:01:10.149Z,18.54
2019-05-12T18:03:44.796Z,18.50
2019-05-12T18:06:10.608Z,18.43
2019-05-12T18:08:39.858Z,18.38
2019-05-12T18:11:11.407Z,18.34
2019-05-12T18:13:40.226Z,18.27
2019-05-12T18:16:11.635Z,18.20
2019-05-12T18:18:40.260Z,18.12
2019-05-12T18:21:13.120Z,18.04
2019-05-12T18:23:40.156Z,17.97
2019-05-12T18:26:11.708Z,17.90
2019-05-12T18:28:40.119Z,17.80
2019-05-12T18:31:09.127Z,17.74
2019-05-12T18:33:49.039Z,17.69
2019-05-12T18:36:09.000Z,17.61
2019-05-12T18:38:38.056Z,17.55
2019-05-12T18:41:07.075Z,17.49
2019-05-12T18:43:36.124Z,17.43
2019-05-12T18:46:08.854Z,17.35
2019-05-12T18:48:36.020Z,17.29
2019-05-12T18:51:11.955Z,17.19
2019-05-12T18:53:35.836Z,17.14
2019-05-12T18:56:04.882Z,17.06
2019-05-12T18:58:35.476Z,16.99
2019-05-12T19:01:06.094Z,16.93
2019-05-12T19:03:46.822Z,16.86
2019-05-12T19:06:05.869Z,16.79
2019-05-12T19:08:34.996Z,16.72
2019-05-12T19:11:17.955Z,16.65
2019-05-12T19:13:34.925Z,16.57
2019-05-12T19:16:07.030Z,16.51
2019-05-12T19:18:37.253Z,16.46
2019-05-12T19:21:10.107Z,16.27
2019-05-12T19:23:37.779Z,16.33
2019-05-12T19:26:06.813Z,16.26
2019-05-12T19:28:35.910Z,16.18
2019-05-12T19:31:08.732Z,16.13
2019-05-12T19:33:35.691Z,16.06
2019-05-12T19:36:07.853Z,16.01
2019-05-12T19:38:35.560Z,15.96
2019-05-12T19:41:04.855Z,15.91
2019-05-12T19:43:34.131Z,15.87
2019-05-12T19:46:04.741Z,15.81
2019-05-12T19:48:43.084Z,15.76
2019-05-12T19:51:19.957Z,15.74
2019-05-12T19:53:35.781Z,15.67
2019-05-12T19:56:04.831Z,15.64
2019-05-12T19:58:34.164Z,15.60
2019-05-12T20:01:03.637Z,15.55
2019-05-12T20:03:33.554Z,15.52
2019-05-12T20:06:02.702Z,15.49
2019-05-12T20:08:31.772Z,15.49
2019-05-12T20:11:00.884Z,15.49
2019-05-12T20:13:36.030Z,15.47
2019-05-12T20:16:00.697Z,15.46
2019-05-12T20:18:36.090Z,15.43
2019-05-12T20:21:00.527Z,15.39
2019-05-12T20:23:29.527Z,15.39
2019-05-12T20:25:58.633Z,15.37
2019-05-12T20:28:27.654Z,15.36
2019-05-12T20:31:00.673Z,15.37
2019-05-12T20:33:27.591Z,15.34
2019-05-12T20:35:56.623Z,15.31
2019-05-12T20:38:33.913Z,15.28
2019-05-12T20:40:56.576Z,15.25
2019-05-12T20:43:32.323Z,15.23
2019-05-12T20:45:59.646Z,15.19
2019-05-12T20:48:31.168Z,15.14
2019-05-12T20:50:59.656Z,15.13
2019-05-12T20:53:31.876Z,15.08
2019-05-12T20:55:59.550Z,15.06
2019-05-12T20:58:35.233Z,15.07
2019-05-12T21:01:05.186Z,15.03
2019-05-12T21:03:33.643Z,15.02
2019-05-12T21:06:04.443Z,14.99
2019-05-12T21:08:33.912Z,14.93
2019-05-12T21:11:03.083Z,14.88
2019-05-12T21:13:34.528Z,14.83
2019-05-12T21:16:15.821Z,14.77
2019-05-12T21:18:47.098Z,14.69
2019-05-12T21:21:04.718Z,14.64
2019-05-12T21:23:33.910Z,14.59
2019-05-12T21:26:04.152Z,14.54
2019-05-12T21:28:37.024Z,14.51
2019-05-12T21:31:04.180Z,14.47
2019-05-12T21:33:40.026Z,14.43
2019-05-12T21:36:04.107Z,14.40
2019-05-12T21:38:34.100Z,14.35
2019-05-12T21:41:07.755Z,14.29
2019-05-12T21:43:34.099Z,14.27
2019-05-12T21:46:07.744Z,14.20
2019-05-12T21:48:34.110Z,14.17
2019-05-12T21:51:04.159Z,14.15
2019-05-12T21:53:34.502Z,14.09
2019-05-12T21:56:05.492Z,14.02
2019-05-12T21:58:34.685Z,13.98
2019-05-12T22:01:05.112Z,13.92
2019-05-12T22:03:34.503Z,13.88
2019-05-12T22:06:15.636Z,13.86
2019-05-12T22:08:34.365Z,13.83
2019-05-12T22:11:09.039Z,13.80
2019-05-12T22:13:34.131Z,13.79
2019-05-12T22:16:03.843Z,13.77
2019-05-12T22:18:33.442Z,13.73
2019-05-12T22:21:06.546Z,13.66
2019-05-12T22:23:33.842Z,13.60
2019-05-12T22:26:04.310Z,13.55
2019-05-12T22:28:34.226Z,13.52
2019-05-12T22:31:03.457Z,13.49
2019-05-12T22:33:33.415Z,13.47
2019-05-12T22:36:08.429Z,13.45
2019-05-12T22:38:34.052Z,13.37
2019-05-12T22:41:04.298Z,13.33
2019-05-12T22:43:41.012Z,13.29
2019-05-12T22:46:04.670Z,13.25
2019-05-12T22:48:37.234Z,13.18
2019-05-12T22:51:23.543Z,13.22
2019-05-12T22:53:47.634Z,13.14
2019-05-12T22:56:18.006Z,13.10
2019-05-12T22:58:52.016Z,13.08
2019-05-12T23:01:18.069Z,13.06
2019-05-12T23:03:51.427Z,10.28
2019-05-12T23:06:23.505Z,12.96
2019-05-12T23:08:49.437Z,12.92
2019-05-12T23:11:23.523Z,12.88
2019-05-12T23:13:49.344Z,12.85
2019-05-12T23:16:19.236Z,12.80
2019-05-12T23:18:49.073Z,12.77
2019-05-12T23:21:18.078Z,12.76
2019-05-12T23:23:49.803Z,12.74
2019-05-12T23:26:17.926Z,12.72
2019-05-12T23:28:50.323Z,12.70
2019-05-12T23:31:19.616Z,12.66
2019-05-12T23:33:48.683Z,12.61
2019-05-12T23:36:19.598Z,12.57
2019-05-12T23:38:54.109Z,12.54
2019-05-12T23:41:19.228Z,12.50
2019-05-12T23:43:48.282Z,12.43
2019-05-12T23:46:17.408Z,12.39
2019-05-12T23:48:46.431Z,12.35
2019-05-12T23:51:15.539Z,12.33
2019-05-12T23:53:44.569Z,12.32
2019-05-12T23:56:13.587Z,12.24
2019-05-12T23:58:43.264Z,12.23
